Flight Track Log - Related Links

Times and Time Zones

All times are in EDT time to prevent confusion due to time zone crossing. See the LOT396 flight status page for this flight to view local times or setup timezone preferences in your user account.

Time Position Orientation Groundspeed Altitude Reporting Facility
EDT Latitude Longitude Course Direction KTS MPH feet Rate Location/Type
Sun 12:08:00 PM 50.1790 9.2015 70° East  Level Estimated
Sun 12:09:00 PM 50.2165 9.3667 70° East  Level Estimated
Sun 12:10:00 PM 50.2539 9.5322 71° East  Level Estimated
Sun 12:11:00 PM 50.2910 9.6980 71° East  Level Estimated
Sun 12:12:00 PM 50.3278 9.8640 71° East  Level Estimated
Sun 12:13:00 PM 50.3644 10.0303 71° East  Level Estimated
Sun 12:14:00 PM 50.4008 10.1968 71° East  Level Estimated
Sun 12:15:00 PM 50.4370 10.3636 71° East  Level Estimated
Sun 12:16:00 PM 50.4729 10.5306 71° East  Level Estimated
Sun 12:17:00 PM 50.5085 10.6979 71° East  Level Estimated
Sun 12:18:00 PM 50.5439 10.8655 72° East  Level Estimated
Sun 12:19:00 PM 50.5791 11.0333 72° East  Level Estimated
Sun 12:20:00 PM 50.6141 11.2013 72° East  Level Estimated
Sun 12:21:00 PM 50.6488 11.3696 72° East  Level Estimated
Sun 12:22:00 PM 50.6832 11.5381 72° East  Level Estimated
Sun 12:23:00 PM 50.7174 11.7069 72° East  Level Estimated
Sun 12:24:00 PM 50.7514 11.8760 72° East  Level Estimated
Sun 12:25:00 PM 50.7851 12.0452 72° East  Level Estimated
Sun 12:26:00 PM 50.8186 12.2148 73° East  Level Estimated
Sun 12:27:00 PM 50.8518 12.3845 73° East  Level Estimated
Sun 12:28:00 PM 50.8848 12.5545 73° East  Level Estimated
Sun 12:29:00 PM 50.9175 12.7248 73° East  Level Estimated
Sun 12:30:00 PM 50.9500 12.8953 73° East  Level Estimated
Sun 12:31:00 PM 50.9823 13.0660 73° East  Level Estimated
Sun 12:32:00 PM 51.0143 13.2370 73° East  Level Estimated
Sun 12:33:00 PM 51.0460 13.4081 74° East  Level Estimated
Sun 12:34:00 PM 51.0775 13.5796 74° East  Level Estimated
Sun 12:35:00 PM 51.1087 13.7512 74° East  Level Estimated
Sun 12:36:00 PM 51.1397 13.9231 74° East  Level Estimated
Sun 12:37:00 PM 51.1705 14.0953 74° East  Level Estimated
Sun 12:38:00 PM 51.2010 14.2676 74° East  Level Estimated
Sun 12:39:00 PM 51.2312 14.4402 74° East  Level Estimated
Sun 12:40:00 PM 51.2612 14.6130 74° East  Level Estimated
Sun 12:41:00 PM 51.2909 14.7860 75° East  Level Estimated
Sun 12:42:00 PM 51.3204 14.9593 75° East  Level Estimated
Sun 12:43:00 PM 51.3496 15.1327 75° East  Level Estimated
Sun 12:44:00 PM 51.3785 15.3064 75° East  Level Estimated
Sun 12:45:00 PM 51.4072 15.4803 75° East  Level Estimated
Sun 12:46:00 PM 51.4356 15.6545 75° East  Level Estimated
Sun 12:47:00 PM 51.4638 15.8288 75° East  Level Estimated
Sun 12:48:00 PM 51.4917 16.0034 76° East  Level Estimated
Sun 12:49:00 PM 51.5194 16.1781 76° East  Level Estimated
Sun 12:50:00 PM 51.5468 16.3531 76° East  Level Estimated
Sun 12:51:00 PM 51.5740 16.5283 76° East  Level Estimated
Sun 12:52:00 PM 51.6008 16.7037 76° East  Level Estimated
Sun 12:53:00 PM 51.6274 16.8793 76° East  Level Estimated
Sun 12:54:00 PM 51.6538 17.0551 76° East  Level Estimated
Sun 12:55:00 PM 51.6799 17.2311 76° East  Level Estimated
Sun 12:56:00 PM 51.7057 17.4074 77° East  Level Estimated
Sun 12:57:00 PM 51.7313 17.5838 77° East  Level Estimated
Sun 12:58:00 PM 51.7566 17.7604 77° East  Level Estimated
Sun 12:59:00 PM 51.7816 17.9372 77° East  Level Estimated
Sun 01:00:00 PM 51.8064 18.1142 77° East  Level Estimated
Sun 01:01:00 PM 51.8309 18.2915 77° East  Level Estimated
Sun 01:02:00 PM 51.8552 18.4688 77° East  Level Estimated
Sun 01:03:00 PM 51.8791 18.6464 78° East  Level Estimated
Sun 01:04:00 PM 51.9028 18.8242 78° East  Level Estimated
Sun 01:05:00 PM 51.9263 19.0022 78° East  Level Estimated
Sun 01:06:00 PM 51.9495 19.1803 78° East  Level Estimated
Sun 01:07:00 PM 51.9724 19.3587 78° East  Level Estimated
Sun 01:08:00 PM 51.9950 19.5372 78° East  Level Estimated
Sun 01:09:00 PM 52.0173 19.7159 78° East  Level Estimated
Sun 01:10:00 PM 52.0394 19.8947 79° East  Level Estimated
Sun 01:11:00 PM 52.0612 20.0738 79° East  Level Estimated
Sun 01:12:00 PM 52.0828 20.2530 79° East  Level Estimated
Sun 01:13:00 PM 52.1041 20.4324 79° East  Level Estimated
Sun 01:14:00 PM 52.1251 20.6119 79° East  Level Estimated
Sun 01:15:00 PM 52.1458 20.7917 79° East  Level Estimated
Sun 01:16:00 PM 52.1657 20.9671 79° East  Level Estimated
Sun 01:17:00 PM 52.1657 20.9671 90° East  Level Estimated
Sun 01:18:00 PM 52.1657 20.9671 90° East  Level Estimated
Sun 01:19:00 PM 52.1657 20.9671 90° East  Level Estimated
Sun 01:20:00 PM 52.1657 20.9671 90° East  Level Estimated
Sun 01:21:00 PM 52.1657 20.9671 90° East  Level Estimated
Sun 01:22:00 PM 52.1657 20.9671 90° East  Level Estimated
Sun 01:23:00 PM 52.1657 20.9671 90° East  Level Estimated
Sun 01:24:00 PM 52.1657 20.9671 90° East  Level Estimated
Sun 01:25:00 PM 52.1657 20.9671 90° East  Level Estimated
Sun 01:26:00 PM 52.1657 20.9671 90° East  Level Estimated
Sun 01:27:00 PM 52.1657 20.9671 90° East  Level Estimated
Sun 01:28:00 PM 52.1657 20.9671 90° East  Level Estimated
Sun 01:29:00 PM 52.1657 20.9671 90° East  Level Estimated
Sun 01:30:00 PM 52.1657 20.9671 90° East  Level Estimated
Sun 01:31:00 PM 52.1657 20.9671 90° East  Level Estimated
Sun 01:32:00 PM 52.1657 20.9671 90° East  Level Estimated

Login

Don't have an account? Register now (free) for customized features, flight alerts, and more!